Terminal Aerodrome Forecast
Issued by NWS

Home | Current Version | Previous Version | Graphics & Text | Print | Product List | Glossary On
Versions: 1 2 3 4 5 6 7 8 9 10 11 12 13 14 15 16 17 18 19 20
000
FTUS43 KICT 280111 AAA
TAFRSL
TAF AMD
KRSL 280111Z 2801/2824 13009KT P6SM VCTS SCT035CB BKN100
      TEMPO 2802/2806 -TSRA
     FM281000 15010KT P6SM VCTS BKN025CB
     FM281500 18015G22KT P6SM BKN050=

USA.gov is the U.S. government's official web portal to all federal, state and local government web resources and services.